sensor_id;sensor_type;location;lat;lon;timestamp;pressure;altitude;pressure_sealevel;temperature;humidity
57572;BME280;44459;43.522;24.470;2023-08-24T00:00:30;100058.63;;;24.83;64.18
57572;BME280;44459;43.522;24.470;2023-08-24T00:02:57;100061.34;;;24.82;64.43
57572;BME280;44459;43.522;24.470;2023-08-24T00:05:23;100059.81;;;24.78;64.57
57572;BME280;44459;43.522;24.470;2023-08-24T00:07:49;100053.25;;;24.66;65.01
57572;BME280;44459;43.522;24.470;2023-08-24T00:10:14;100056.28;;;24.60;65.80
57572;BME280;44459;43.522;24.470;2023-08-24T00:12:40;100054.53;;;24.59;65.96
57572;BME280;44459;43.522;24.470;2023-08-24T00:15:09;100055.97;;;24.49;66.69
57572;BME280;44459;43.522;24.470;2023-08-24T00:17:36;100057.09;;;24.45;66.70
57572;BME280;44459;43.522;24.470;2023-08-24T00:20:03;100050.13;;;24.41;66.87
57572;BME280;44459;43.522;24.470;2023-08-24T00:22:30;100052.50;;;24.47;66.71
57572;BME280;44459;43.522;24.470;2023-08-24T00:24:55;100057.09;;;24.45;66.53
57572;BME280;44459;43.522;24.470;2023-08-24T00:27:21;100054.94;;;24.51;66.46
57572;BME280;44459;43.522;24.470;2023-08-24T00:29:46;100052.00;;;24.56;66.53
57572;BME280;44459;43.522;24.470;2023-08-24T00:32:12;100055.41;;;24.60;67.11
57572;BME280;44459;43.522;24.470;2023-08-24T00:34:37;100059.16;;;24.57;66.43
57572;BME280;44459;43.522;24.470;2023-08-24T00:37:02;100061.16;;;24.53;66.53
57572;BME280;44459;43.522;24.470;2023-08-24T00:39:28;100066.38;;;24.57;66.77
57572;BME280;44459;43.522;24.470;2023-08-24T00:41:54;100059.72;;;24.46;66.57
57572;BME280;44459;43.522;24.470;2023-08-24T00:44:20;100057.03;;;24.46;66.70
57572;BME280;44459;43.522;24.470;2023-08-24T00:46:45;100043.59;;;24.45;67.31
57572;BME280;44459;43.522;24.470;2023-08-24T00:49:11;100056.72;;;24.35;67.50
57572;BME280;44459;43.522;24.470;2023-08-24T00:51:37;100051.97;;;24.23;67.88
57572;BME280;44459;43.522;24.470;2023-08-24T00:54:03;100039.84;;;24.15;68.10
57572;BME280;44459;43.522;24.470;2023-08-24T00:56:28;100045.69;;;24.23;67.90
57572;BME280;44459;43.522;24.470;2023-08-24T00:58:56;100051.19;;;24.21;67.82
57572;BME280;44459;43.522;24.470;2023-08-24T01:01:22;100054.03;;;24.18;68.31
57572;BME280;44459;43.522;24.470;2023-08-24T01:03:47;100047.13;;;24.13;68.71
57572;BME280;44459;43.522;24.470;2023-08-24T01:06:13;100049.75;;;24.14;68.37
57572;BME280;44459;43.522;24.470;2023-08-24T01:08:38;100048.00;;;24.13;68.77
57572;BME280;44459;43.522;24.470;2023-08-24T01:16:28;100047.53;;;24.05;69.12
57572;BME280;44459;43.522;24.470;2023-08-24T01:18:56;100046.47;;;24.08;69.12
57572;BME280;44459;43.522;24.470;2023-08-24T01:21:22;100048.53;;;24.02;69.28
57572;BME280;44459;43.522;24.470;2023-08-24T01:23:57;100043.94;;;24.04;69.41
57572;BME280;44459;43.522;24.470;2023-08-24T01:26:29;100044.16;;;24.00;69.53
57572;BME280;44459;43.522;24.470;2023-08-24T01:28:55;100042.19;;;24.03;69.71
57572;BME280;44459;43.522;24.470;2023-08-24T01:31:20;100035.31;;;23.98;69.67
57572;BME280;44459;43.522;24.470;2023-08-24T01:33:46;100040.59;;;23.99;70.13
57572;BME280;44459;43.522;24.470;2023-08-24T01:36:13;100039.50;;;24.03;70.03
57572;BME280;44459;43.522;24.470;2023-08-24T01:38:39;100031.63;;;23.99;70.04
57572;BME280;44459;43.522;24.470;2023-08-24T01:41:09;100036.41;;;23.94;69.95
57572;BME280;44459;43.522;24.470;2023-08-24T01:43:39;100035.84;;;23.87;70.18
57572;BME280;44459;43.522;24.470;2023-08-24T01:46:05;100042.03;;;23.89;70.49
57572;BME280;44459;43.522;24.470;2023-08-24T01:48:32;100038.38;;;23.90;70.20
57572;BME280;44459;43.522;24.470;2023-08-24T01:50:59;100037.34;;;23.93;70.47
57572;BME280;44459;43.522;24.470;2023-08-24T01:53:27;100026.00;;;23.86;71.10
57572;BME280;44459;43.522;24.470;2023-08-24T01:55:52;100034.03;;;23.88;71.24
57572;BME280;44459;43.522;24.470;2023-08-24T01:58:18;100041.97;;;23.91;72.09
57572;BME280;44459;43.522;24.470;2023-08-24T02:00:44;100040.28;;;23.88;71.57
57572;BME280;44459;43.522;24.470;2023-08-24T02:03:09;100050.34;;;23.85;72.20
57572;BME280;44459;43.522;24.470;2023-08-24T02:05:35;100064.09;;;23.80;72.61
57572;BME280;44459;43.522;24.470;2023-08-24T02:08:00;100048.84;;;23.79;72.53
57572;BME280;44459;43.522;24.470;2023-08-24T02:10:26;100048.53;;;23.85;73.34
57572;BME280;44459;43.522;24.470;2023-08-24T02:12:51;100042.03;;;23.89;73.62
57572;BME280;44459;43.522;24.470;2023-08-24T02:15:17;100053.28;;;23.80;73.12
57572;BME280;44459;43.522;24.470;2023-08-24T02:17:42;100054.41;;;23.76;73.91
57572;BME280;44459;43.522;24.470;2023-08-24T02:20:08;100039.09;;;23.77;74.43
57572;BME280;44459;43.522;24.470;2023-08-24T02:22:34;100054.63;;;23.72;74.34
57572;BME280;44459;43.522;24.470;2023-08-24T02:24:59;100055.00;;;23.64;74.58
57572;BME280;44459;43.522;24.470;2023-08-24T02:27:26;100047.34;;;23.74;74.79
57572;BME280;44459;43.522;24.470;2023-08-24T02:29:52;100046.91;;;23.64;74.90
57572;BME280;44459;43.522;24.470;2023-08-24T02:32:17;100051.13;;;23.52;75.63
57572;BME280;44459;43.522;24.470;2023-08-24T02:34:43;100038.38;;;23.56;76.01
57572;BME280;44459;43.522;24.470;2023-08-24T02:37:09;100039.16;;;23.58;76.47
57572;BME280;44459;43.522;24.470;2023-08-24T02:39:35;100044.38;;;23.61;75.71
57572;BME280;44459;43.522;24.470;2023-08-24T02:42:01;100054.59;;;23.54;75.74
57572;BME280;44459;43.522;24.470;2023-08-24T02:44:26;100043.75;;;23.56;76.20
57572;BME280;44459;43.522;24.470;2023-08-24T02:46:53;100043.09;;;23.51;77.04
57572;BME280;44459;43.522;24.470;2023-08-24T02:49:19;100053.00;;;23.50;76.38
57572;BME280;44459;43.522;24.470;2023-08-24T02:51:44;100069.41;;;23.46;76.74
57572;BME280;44459;43.522;24.470;2023-08-24T02:54:10;100062.44;;;23.42;77.35
57572;BME280;44459;43.522;24.470;2023-08-24T02:56:35;100057.75;;;23.45;78.15
57572;BME280;44459;43.522;24.470;2023-08-24T02:59:01;100052.28;;;23.47;78.65
57572;BME280;44459;43.522;24.470;2023-08-24T03:01:26;100056.88;;;23.45;78.01
57572;BME280;44459;43.522;24.470;2023-08-24T03:03:52;100053.50;;;23.40;77.74
57572;BME280;44459;43.522;24.470;2023-08-24T03:06:17;100050.78;;;23.40;78.44
57572;BME280;44459;43.522;24.470;2023-08-24T03:08:43;100040.03;;;23.40;79.20
57572;BME280;44459;43.522;24.470;2023-08-24T03:11:08;100038.34;;;23.37;79.33
57572;BME280;44459;43.522;24.470;2023-08-24T03:13:36;100040.47;;;23.31;79.79
57572;BME280;44459;43.522;24.470;2023-08-24T03:16:05;100051.03;;;23.35;78.92
57572;BME280;44459;43.522;24.470;2023-08-24T03:18:31;100053.81;;;23.34;79.57
57572;BME280;44459;43.522;24.470;2023-08-24T03:20:56;100061.53;;;23.23;80.27
57572;BME280;44459;43.522;24.470;2023-08-24T03:23:22;100051.84;;;23.19;80.78
57572;BME280;44459;43.522;24.470;2023-08-24T03:25:47;100067.28;;;23.15;80.84
57572;BME280;44459;43.522;24.470;2023-08-24T03:28:13;100057.78;;;23.08;81.65
57572;BME280;44459;43.522;24.470;2023-08-24T03:30:44;100068.53;;;23.08;81.56
57572;BME280;44459;43.522;24.470;2023-08-24T03:33:10;100076.31;;;22.95;81.50
57572;BME280;44459;43.522;24.470;2023-08-24T03:35:35;100084.69;;;22.89;81.23
57572;BME280;44459;43.522;24.470;2023-08-24T03:38:01;100085.63;;;22.88;81.93
57572;BME280;44459;43.522;24.470;2023-08-24T03:40:26;100083.88;;;22.87;82.42
57572;BME280;44459;43.522;24.470;2023-08-24T03:42:52;100089.25;;;22.87;82.61
57572;BME280;44459;43.522;24.470;2023-08-24T03:45:19;100077.69;;;22.85;82.02
57572;BME280;44459;43.522;24.470;2023-08-24T03:47:44;100078.13;;;22.76;82.95
57572;BME280;44459;43.522;24.470;2023-08-24T03:50:10;100085.38;;;22.74;83.64
57572;BME280;44459;43.522;24.470;2023-08-24T03:52:35;100076.38;;;22.75;83.59
57572;BME280;44459;43.522;24.470;2023-08-24T03:55:01;100094.00;;;22.82;83.88
57572;BME280;44459;43.522;24.470;2023-08-24T03:57:27;100085.84;;;22.84;83.39
57572;BME280;44459;43.522;24.470;2023-08-24T03:59:52;100087.81;;;22.80;83.47
57572;BME280;44459;43.522;24.470;2023-08-24T04:02:18;100091.44;;;22.79;84.34
57572;BME280;44459;43.522;24.470;2023-08-24T04:04:44;100095.16;;;22.77;83.76
57572;BME280;44459;43.522;24.470;2023-08-24T04:07:09;100092.31;;;22.80;84.29
57572;BME280;44459;43.522;24.470;2023-08-24T04:09:35;100094.41;;;22.73;85.42
57572;BME280;44459;43.522;24.470;2023-08-24T04:12:00;100088.16;;;22.73;85.87
57572;BME280;44459;43.522;24.470;2023-08-24T04:14:25;100086.13;;;22.78;86.32
57572;BME280;44459;43.522;24.470;2023-08-24T04:16:51;100096.69;;;22.82;85.51
57572;BME280;44459;43.522;24.470;2023-08-24T04:19:17;100092.09;;;22.84;86.04
57572;BME280;44459;43.522;24.470;2023-08-24T04:21:43;100090.06;;;22.89;85.62
57572;BME280;44459;43.522;24.470;2023-08-24T04:24:08;100100.97;;;22.86;85.38
57572;BME280;44459;43.522;24.470;2023-08-24T04:26:34;100102.94;;;22.83;85.95
57572;BME280;44459;43.522;24.470;2023-08-24T04:28:59;100103.97;;;22.80;86.77
57572;BME280;44459;43.522;24.470;2023-08-24T04:31:24;100106.94;;;22.93;86.44
57572;BME280;44459;43.522;24.470;2023-08-24T04:33:50;100112.78;;;23.02;86.50
57572;BME280;44459;43.522;24.470;2023-08-24T04:36:15;100116.63;;;23.16;85.76
57572;BME280;44459;43.522;24.470;2023-08-24T04:38:41;100118.97;;;23.23;86.20
57572;BME280;44459;43.522;24.470;2023-08-24T04:41:08;100119.94;;;23.41;85.68
57572;BME280;44459;43.522;24.470;2023-08-24T04:43:34;100107.13;;;23.46;85.10
57572;BME280;44459;43.522;24.470;2023-08-24T04:46:01;100120.16;;;23.55;84.49
57572;BME280;44459;43.522;24.470;2023-08-24T04:48:27;100107.09;;;23.65;83.97
57572;BME280;44459;43.522;24.470;2023-08-24T04:50:52;100113.31;;;23.67;84.77
57572;BME280;44459;43.522;24.470;2023-08-24T04:53:19;100124.72;;;23.72;83.88
57572;BME280;44459;43.522;24.470;2023-08-24T04:55:46;100127.03;;;23.79;84.16
57572;BME280;44459;43.522;24.470;2023-08-24T04:58:12;100118.25;;;23.93;83.38
57572;BME280;44459;43.522;24.470;2023-08-24T05:00:38;100121.34;;;24.02;83.15
57572;BME280;44459;43.522;24.470;2023-08-24T05:03:05;100130.53;;;24.17;82.85
57572;BME280;44459;43.522;24.470;2023-08-24T05:05:32;100123.63;;;24.29;82.14
57572;BME280;44459;43.522;24.470;2023-08-24T05:07:58;100124.09;;;24.37;81.91
57572;BME280;44459;43.522;24.470;2023-08-24T05:10:25;100121.47;;;24.52;81.16
57572;BME280;44459;43.522;24.470;2023-08-24T05:12:50;100130.03;;;24.78;81.03
57572;BME280;44459;43.522;24.470;2023-08-24T05:15:16;100127.63;;;24.89;80.41
57572;BME280;44459;43.522;24.470;2023-08-24T05:17:41;100118.63;;;25.06;79.61
57572;BME280;44459;43.522;24.470;2023-08-24T05:20:08;100130.31;;;25.22;79.19
57572;BME280;44459;43.522;24.470;2023-08-24T05:22:36;100127.38;;;25.26;78.31
57572;BME280;44459;43.522;24.470;2023-08-24T05:25:01;100126.41;;;25.43;78.21
57572;BME280;44459;43.522;24.470;2023-08-24T05:27:26;100116.84;;;25.53;77.54
57572;BME280;44459;43.522;24.470;2023-08-24T05:29:52;100124.16;;;25.67;77.12
57572;BME280;44459;43.522;24.470;2023-08-24T05:32:17;100129.72;;;25.79;76.40
57572;BME280;44459;43.522;24.470;2023-08-24T05:34:45;100135.91;;;25.97;77.04
57572;BME280;44459;43.522;24.470;2023-08-24T05:37:11;100134.31;;;26.09;75.61
57572;BME280;44459;43.522;24.470;2023-08-24T05:39:36;100137.72;;;26.12;74.92
57572;BME280;44459;43.522;24.470;2023-08-24T05:42:02;100140.97;;;26.19;74.31
57572;BME280;44459;43.522;24.470;2023-08-24T05:44:27;100130.00;;;26.36;73.74
57572;BME280;44459;43.522;24.470;2023-08-24T05:46:52;100127.94;;;26.55;73.39
57572;BME280;44459;43.522;24.470;2023-08-24T05:49:18;100128.44;;;26.76;72.44
57572;BME280;44459;43.522;24.470;2023-08-24T05:51:43;100129.72;;;26.84;71.52
57572;BME280;44459;43.522;24.470;2023-08-24T05:54:09;100126.94;;;27.00;70.70
57572;BME280;44459;43.522;24.470;2023-08-24T05:56:34;100128.84;;;27.12;70.79
57572;BME280;44459;43.522;24.470;2023-08-24T05:59:00;100135.69;;;27.32;68.27
57572;BME280;44459;43.522;24.470;2023-08-24T06:01:25;100135.88;;;27.57;69.91
57572;BME280;44459;43.522;24.470;2023-08-24T06:03:51;100126.34;;;27.78;67.20
57572;BME280;44459;43.522;24.470;2023-08-24T06:06:16;100136.28;;;27.92;65.38
57572;BME280;44459;43.522;24.470;2023-08-24T06:08:42;100134.19;;;28.10;65.25
57572;BME280;44459;43.522;24.470;2023-08-24T06:11:08;100138.53;;;28.39;65.49
57572;BME280;44459;43.522;24.470;2023-08-24T06:13:34;100139.41;;;28.65;62.87
57572;BME280;44459;43.522;24.470;2023-08-24T06:15:59;100142.41;;;28.87;62.36
57572;BME280;44459;43.522;24.470;2023-08-24T06:18:25;100139.69;;;28.99;61.57
57572;BME280;44459;43.522;24.470;2023-08-24T06:20:50;100136.16;;;29.23;60.80
57572;BME280;44459;43.522;24.470;2023-08-24T06:23:19;100137.50;;;29.42;59.93
57572;BME280;44459;43.522;24.470;2023-08-24T06:25:45;100131.97;;;29.68;58.29
57572;BME280;44459;43.522;24.470;2023-08-24T06:28:11;100137.91;;;29.85;56.59
57572;BME280;44459;43.522;24.470;2023-08-24T06:30:41;100135.72;;;29.90;56.08
57572;BME280;44459;43.522;24.470;2023-08-24T06:33:08;100142.16;;;30.13;56.34
57572;BME280;44459;43.522;24.470;2023-08-24T06:35:36;100138.75;;;30.22;56.15
57572;BME280;44459;43.522;24.470;2023-08-24T06:38:03;100139.44;;;30.37;55.46
57572;BME280;44459;43.522;24.470;2023-08-24T06:40:29;100141.47;;;30.46;53.95
57572;BME280;44459;43.522;24.470;2023-08-24T06:42:58;100140.28;;;30.61;53.67
57572;BME280;44459;43.522;24.470;2023-08-24T06:45:23;100140.66;;;30.68;52.42
57572;BME280;44459;43.522;24.470;2023-08-24T06:47:49;100137.56;;;30.83;53.24
57572;BME280;44459;43.522;24.470;2023-08-24T06:50:15;100146.13;;;30.90;51.81
57572;BME280;44459;43.522;24.470;2023-08-24T06:52:41;100142.72;;;30.99;52.02
57572;BME280;44459;43.522;24.470;2023-08-24T06:55:10;100143.34;;;31.25;51.48
57572;BME280;44459;43.522;24.470;2023-08-24T06:57:35;100146.47;;;31.54;51.36
57572;BME280;44459;43.522;24.470;2023-08-24T07:00:01;100139.50;;;31.72;49.77
57572;BME280;44459;43.522;24.470;2023-08-24T07:02:31;100147.06;;;31.79;49.62
57572;BME280;44459;43.522;24.470;2023-08-24T07:04:57;100143.41;;;31.90;50.09
57572;BME280;44459;43.522;24.470;2023-08-24T07:07:23;100141.66;;;32.00;49.48
57572;BME280;44459;43.522;24.470;2023-08-24T07:09:48;100154.13;;;32.25;48.29
57572;BME280;44459;43.522;24.470;2023-08-24T07:12:14;100146.38;;;32.41;49.55
57572;BME280;44459;43.522;24.470;2023-08-24T07:14:39;100141.94;;;32.61;48.09
57572;BME280;44459;43.522;24.470;2023-08-24T07:17:06;100146.28;;;32.63;47.24
57572;BME280;44459;43.522;24.470;2023-08-24T07:19:31;100144.91;;;32.69;47.01
57572;BME280;44459;43.522;24.470;2023-08-24T07:21:57;100146.97;;;32.76;46.66
57572;BME280;44459;43.522;24.470;2023-08-24T07:24:22;100142.31;;;32.98;46.23
57572;BME280;44459;43.522;24.470;2023-08-24T07:26:52;100148.00;;;33.06;46.44
57572;BME280;44459;43.522;24.470;2023-08-24T07:29:18;100138.03;;;33.25;47.54
57572;BME280;44459;43.522;24.470;2023-08-24T07:31:43;100144.00;;;33.40;46.17
57572;BME280;44459;43.522;24.470;2023-08-24T07:34:08;100148.38;;;33.52;45.63
57572;BME280;44459;43.522;24.470;2023-08-24T07:36:34;100142.75;;;33.54;45.31
57572;BME280;44459;43.522;24.470;2023-08-24T07:38:59;100142.28;;;33.69;45.49
57572;BME280;44459;43.522;24.470;2023-08-24T07:41:25;100140.84;;;33.84;44.54
57572;BME280;44459;43.522;24.470;2023-08-24T07:43:50;100146.66;;;34.01;44.54
57572;BME280;44459;43.522;24.470;2023-08-24T07:46:16;100143.19;;;33.99;43.57
57572;BME280;44459;43.522;24.470;2023-08-24T07:48:41;100151.09;;;33.82;42.90
57572;BME280;44459;43.522;24.470;2023-08-24T07:51:07;100140.56;;;33.78;44.67
57572;BME280;44459;43.522;24.470;2023-08-24T07:53:33;100140.25;;;33.81;44.26
57572;BME280;44459;43.522;24.470;2023-08-24T07:55:59;100131.03;;;33.63;43.84
57572;BME280;44459;43.522;24.470;2023-08-24T07:58:25;100135.25;;;33.96;44.77
57572;BME280;44459;43.522;24.470;2023-08-24T08:00:50;100137.28;;;34.03;43.21
57572;BME280;44459;43.522;24.470;2023-08-24T08:03:19;100135.19;;;34.26;44.72
57572;BME280;44459;43.522;24.470;2023-08-24T08:05:46;100146.41;;;34.23;43.18
57572;BME280;44459;43.522;24.470;2023-08-24T08:08:13;100145.28;;;34.25;45.25
57572;BME280;44459;43.522;24.470;2023-08-24T08:10:39;100149.00;;;34.44;43.73
57572;BME280;44459;43.522;24.470;2023-08-24T08:13:04;100141.50;;;34.55;43.83
57572;BME280;44459;43.522;24.470;2023-08-24T08:15:30;100140.22;;;34.40;42.48
57572;BME280;44459;43.522;24.470;2023-08-24T08:17:55;100133.88;;;34.40;44.19
57572;BME280;44459;43.522;24.470;2023-08-24T08:20:21;100133.97;;;34.00;43.92
57572;BME280;44459;43.522;24.470;2023-08-24T08:22:46;100121.91;;;34.31;42.80
57572;BME280;44459;43.522;24.470;2023-08-24T08:25:12;100141.22;;;34.20;43.11
57572;BME280;44459;43.522;24.470;2023-08-24T08:27:37;100131.09;;;33.61;44.15
57572;BME280;44459;43.522;24.470;2023-08-24T08:30:04;100131.34;;;33.88;45.32
57572;BME280;44459;43.522;24.470;2023-08-24T08:32:30;100125.03;;;34.07;43.81
57572;BME280;44459;43.522;24.470;2023-08-24T08:34:56;100123.78;;;34.21;43.58
57572;BME280;44459;43.522;24.470;2023-08-24T08:37:23;100123.94;;;34.29;44.67
57572;BME280;44459;43.522;24.470;2023-08-24T08:39:49;100115.72;;;34.29;43.22
57572;BME280;44459;43.522;24.470;2023-08-24T08:42:14;100117.44;;;34.20;43.01
57572;BME280;44459;43.522;24.470;2023-08-24T08:44:41;100126.75;;;33.99;43.36
57572;BME280;44459;43.522;24.470;2023-08-24T08:47:07;100121.44;;;33.97;44.61
57572;BME280;44459;43.522;24.470;2023-08-24T08:49:34;100114.06;;;33.98;44.45
57572;BME280;44459;43.522;24.470;2023-08-24T08:52:01;100111.81;;;34.22;43.23
57572;BME280;44459;43.522;24.470;2023-08-24T08:54:27;100110.06;;;34.21;44.14
57572;BME280;44459;43.522;24.470;2023-08-24T08:56:53;100103.72;;;34.49;44.81
57572;BME280;44459;43.522;24.470;2023-08-24T08:59:20;100102.00;;;34.38;43.02
57572;BME280;44459;43.522;24.470;2023-08-24T09:01:47;100100.25;;;34.57;44.22
57572;BME280;44459;43.522;24.470;2023-08-24T09:04:13;100098.22;;;34.68;42.50
57572;BME280;44459;43.522;24.470;2023-08-24T09:06:39;100098.50;;;34.65;44.40
57572;BME280;44459;43.522;24.470;2023-08-24T09:09:05;100104.72;;;34.48;42.53
57572;BME280;44459;43.522;24.470;2023-08-24T09:11:32;100097.94;;;34.33;43.76
57572;BME280;44459;43.522;24.470;2023-08-24T09:13:58;100089.84;;;34.51;42.06
57572;BME280;44459;43.522;24.470;2023-08-24T09:16:29;100093.34;;;34.43;41.91
57572;BME280;44459;43.522;24.470;2023-08-24T09:18:54;100088.84;;;34.23;42.91
57572;BME280;44459;43.522;24.470;2023-08-24T09:21:20;100093.59;;;34.40;44.43
57572;BME280;44459;43.522;24.470;2023-08-24T09:23:52;100089.44;;;34.46;42.16
57572;BME280;44459;43.522;24.470;2023-08-24T09:26:31;100087.56;;;34.46;42.53
57572;BME280;44459;43.522;24.470;2023-08-24T09:28:58;100075.41;;;34.77;42.22
57572;BME280;44459;43.522;24.470;2023-08-24T09:31:26;100087.66;;;34.73;40.94
57572;BME280;44459;43.522;24.470;2023-08-24T09:34:01;100072.25;;;34.63;41.06
57572;BME280;44459;43.522;24.470;2023-08-24T09:36:26;100072.22;;;34.72;42.52
57572;BME280;44459;43.522;24.470;2023-08-24T09:38:52;100075.78;;;34.82;41.06
57572;BME280;44459;43.522;24.470;2023-08-24T09:41:17;100074.22;;;34.80;40.86
57572;BME280;44459;43.522;24.470;2023-08-24T09:43:43;100074.66;;;34.75;40.27
57572;BME280;44459;43.522;24.470;2023-08-24T09:46:08;100059.59;;;34.99;40.94
57572;BME280;44459;43.522;24.470;2023-08-24T09:48:33;100063.16;;;35.09;40.81
57572;BME280;44459;43.522;24.470;2023-08-24T09:51:03;100068.09;;;34.96;40.50
57572;BME280;44459;43.522;24.470;2023-08-24T09:53:32;100074.25;;;35.17;41.56
57572;BME280;44459;43.522;24.470;2023-08-24T09:56:01;100065.31;;;35.15;39.83
57572;BME280;44459;43.522;24.470;2023-08-24T09:58:27;100056.38;;;35.40;41.15
57572;BME280;44459;43.522;24.470;2023-08-24T10:00:54;100046.34;;;35.49;40.65
57572;BME280;44459;43.522;24.470;2023-08-24T10:03:24;100047.72;;;35.35;39.71
57572;BME280;44459;43.522;24.470;2023-08-24T10:05:53;100037.41;;;35.19;40.20
57572;BME280;44459;43.522;24.470;2023-08-24T10:08:36;100042.50;;;35.05;39.63
57572;BME280;44459;43.522;24.470;2023-08-24T10:11:05;100045.63;;;35.10;39.42
57572;BME280;44459;43.522;24.470;2023-08-24T10:13:51;100031.16;;;34.90;39.02
57572;BME280;44459;43.522;24.470;2023-08-24T10:16:19;100030.75;;;35.22;39.86
57572;BME280;44459;43.522;24.470;2023-08-24T10:18:47;100035.13;;;35.05;38.96
57572;BME280;44459;43.522;24.470;2023-08-24T10:21:12;100021.50;;;35.23;38.78
57572;BME280;44459;43.522;24.470;2023-08-24T10:23:38;100021.53;;;35.13;39.12
57572;BME280;44459;43.522;24.470;2023-08-24T10:26:06;100019.31;;;34.90;39.63
57572;BME280;44459;43.522;24.470;2023-08-24T10:28:32;100021.09;;;34.81;39.42
57572;BME280;44459;43.522;24.470;2023-08-24T10:30:59;100004.16;;;34.85;38.70
57572;BME280;44459;43.522;24.470;2023-08-24T10:33:26;100007.91;;;35.21;38.13
57572;BME280;44459;43.522;24.470;2023-08-24T10:35:52;99995.66;;;35.43;38.06
57572;BME280;44459;43.522;24.470;2023-08-24T10:38:28;100001.91;;;35.80;37.89
57572;BME280;44459;43.522;24.470;2023-08-24T10:40:55;100006.53;;;35.80;37.69
57572;BME280;44459;43.522;24.470;2023-08-24T10:43:26;100000.44;;;35.59;37.75
57572;BME280;44459;43.522;24.470;2023-08-24T10:48:25;99984.41;;;35.64;37.15
57572;BME280;44459;43.522;24.470;2023-08-24T10:51:22;99987.06;;;35.73;38.71
57572;BME280;44459;43.522;24.470;2023-08-24T10:53:53;99979.34;;;35.95;36.69
57572;BME280;44459;43.522;24.470;2023-08-24T10:56:20;99977.63;;;35.94;36.58
57572;BME280;44459;43.522;24.470;2023-08-24T10:58:46;99974.19;;;35.74;37.36
57572;BME280;44459;43.522;24.470;2023-08-24T11:01:18;99961.28;;;35.57;37.23
57572;BME280;44459;43.522;24.470;2023-08-24T11:04:10;99966.16;;;35.80;37.14
57572;BME280;44459;43.522;24.470;2023-08-24T11:06:57;99963.72;;;35.95;36.69
57572;BME280;44459;43.522;24.470;2023-08-24T11:09:25;99955.63;;;35.94;36.38
57572;BME280;44459;43.522;24.470;2023-08-24T11:12:02;99947.38;;;35.94;36.87
57572;BME280;44459;43.522;24.470;2023-08-24T11:14:29;99945.41;;;36.04;37.50
57572;BME280;44459;43.522;24.470;2023-08-24T11:17:17;99943.50;;;35.78;36.67
57572;BME280;44459;43.522;24.470;2023-08-24T11:19:51;99954.84;;;35.48;36.34
57572;BME280;44459;43.522;24.470;2023-08-24T11:22:17;99945.13;;;35.36;36.22
57572;BME280;44459;43.522;24.470;2023-08-24T11:24:43;99939.94;;;35.51;36.65
57572;BME280;44459;43.522;24.470;2023-08-24T11:27:09;99923.16;;;35.36;36.42
57572;BME280;44459;43.522;24.470;2023-08-24T11:29:34;99921.97;;;35.56;35.55
57572;BME280;44459;43.522;24.470;2023-08-24T11:32:00;99916.31;;;35.75;35.25
57572;BME280;44459;43.522;24.470;2023-08-24T11:34:25;99907.25;;;36.01;36.57
57572;BME280;44459;43.522;24.470;2023-08-24T11:36:51;99905.88;;;36.22;37.20
57572;BME280;44459;43.522;24.470;2023-08-24T11:39:19;99916.81;;;36.40;37.19
57572;BME280;44459;43.522;24.470;2023-08-24T11:42:05;99908.44;;;36.24;35.64
57572;BME280;44459;43.522;24.470;2023-08-24T11:44:47;99907.81;;;36.30;35.76
57572;BME280;44459;43.522;24.470;2023-08-24T11:47:12;99906.53;;;36.16;35.36
57572;BME280;44459;43.522;24.470;2023-08-24T11:49:38;99895.22;;;36.02;35.64
57572;BME280;44459;43.522;24.470;2023-08-24T11:52:04;99889.13;;;35.90;34.79
57572;BME280;44459;43.522;24.470;2023-08-24T11:54:32;99891.47;;;36.03;35.01
57572;BME280;44459;43.522;24.470;2023-08-24T11:56:57;99889.06;;;36.25;36.49
57572;BME280;44459;43.522;24.470;2023-08-24T11:59:23;99879.19;;;36.41;35.27
57572;BME280;44459;43.522;24.470;2023-08-24T12:01:50;99876.53;;;36.57;34.21
57572;BME280;44459;43.522;24.470;2023-08-24T12:04:16;99867.31;;;36.48;34.53
57572;BME280;44459;43.522;24.470;2023-08-24T12:06:41;99869.38;;;36.72;34.30
57572;BME280;44459;43.522;24.470;2023-08-24T12:09:07;99868.94;;;36.93;33.29
57572;BME280;44459;43.522;24.470;2023-08-24T12:11:38;99864.75;;;36.80;33.86
57572;BME280;44459;43.522;24.470;2023-08-24T12:14:05;99866.16;;;36.93;34.63
57572;BME280;44459;43.522;24.470;2023-08-24T12:16:33;99860.81;;;36.91;33.86
57572;BME280;44459;43.522;24.470;2023-08-24T12:18:59;99868.69;;;36.78;32.29
57572;BME280;44459;43.522;24.470;2023-08-24T12:21:26;99870.19;;;36.64;34.30
57572;BME280;44459;43.522;24.470;2023-08-24T12:24:13;99866.50;;;36.48;33.83
57572;BME280;44459;43.522;24.470;2023-08-24T12:26:39;99862.09;;;36.29;34.34
57572;BME280;44459;43.522;24.470;2023-08-24T12:29:06;99855.06;;;36.34;34.91
57572;BME280;44459;43.522;24.470;2023-08-24T12:31:32;99852.56;;;36.15;34.81
57572;BME280;44459;43.522;24.470;2023-08-24T12:33:59;99841.28;;;36.26;36.14
57572;BME280;44459;43.522;24.470;2023-08-24T12:36:25;99841.78;;;36.22;35.97
57572;BME280;44459;43.522;24.470;2023-08-24T12:38:51;99845.97;;;36.34;35.96
57572;BME280;44459;43.522;24.470;2023-08-24T12:41:16;99850.53;;;36.51;35.58
57572;BME280;44459;43.522;24.470;2023-08-24T12:43:41;99843.56;;;36.39;32.52
57572;BME280;44459;43.522;24.470;2023-08-24T12:46:07;99841.81;;;36.30;32.66